sensor_id;sensor_type;location;lat;lon;timestamp;pressure;altitude;pressure_sealevel;temperature;humidity
15267;BME280;7735;49.144;8.668;2022-07-29T00:00:11;99883.53;;;25.55;43.15
15267;BME280;7735;49.144;8.668;2022-07-29T00:02:38;99885.56;;;25.52;43.29
15267;BME280;7735;49.144;8.668;2022-07-29T00:05:06;99877.69;;;25.50;43.33
15267;BME280;7735;49.144;8.668;2022-07-29T00:07:34;99882.16;;;25.50;43.14
15267;BME280;7735;49.144;8.668;2022-07-29T00:10:00;99880.59;;;25.47;43.28
15267;BME280;7735;49.144;8.668;2022-07-29T00:12:27;99880.59;;;25.47;43.51
15267;BME280;7735;49.144;8.668;2022-07-29T00:14:56;99871.09;;;25.43;43.74
15267;BME280;7735;49.144;8.668;2022-07-29T00:17:23;99864.31;;;25.39;43.58
15267;BME280;7735;49.144;8.668;2022-07-29T00:19:50;99862.81;;;25.35;43.95
15267;BME280;7735;49.144;8.668;2022-07-29T00:22:17;99858.69;;;25.31;43.86
15267;BME280;7735;49.144;8.668;2022-07-29T00:24:44;99866.91;;;25.28;44.19
15267;BME280;7735;49.144;8.668;2022-07-29T00:27:10;99866.16;;;25.26;44.04
15267;BME280;7735;49.144;8.668;2022-07-29T00:29:37;99861.78;;;25.25;44.13
15267;BME280;7735;49.144;8.668;2022-07-29T00:32:05;99862.03;;;25.22;44.72
15267;BME280;7735;49.144;8.668;2022-07-29T00:34:32;99857.78;;;25.19;44.42
15267;BME280;7735;49.144;8.668;2022-07-29T00:37:16;99860.66;;;25.16;44.86
15267;BME280;7735;49.144;8.668;2022-07-29T00:39:43;99851.06;;;25.13;44.68
15267;BME280;7735;49.144;8.668;2022-07-29T00:42:09;99862.69;;;25.12;45.16
15267;BME280;7735;49.144;8.668;2022-07-29T00:44:37;99852.28;;;25.09;44.83
15267;BME280;7735;49.144;8.668;2022-07-29T00:47:06;99847.88;;;25.08;44.92
15267;BME280;7735;49.144;8.668;2022-07-29T00:49:33;99847.25;;;25.05;45.01
15267;BME280;7735;49.144;8.668;2022-07-29T00:52:00;99847.38;;;25.03;45.15
15267;BME280;7735;49.144;8.668;2022-07-29T00:54:27;99845.78;;;25.01;45.16
15267;BME280;7735;49.144;8.668;2022-07-29T00:56:55;99843.31;;;24.98;45.49
15267;BME280;7735;49.144;8.668;2022-07-29T00:59:22;99853.34;;;24.94;45.79
15267;BME280;7735;49.144;8.668;2022-07-29T01:01:49;99856.97;;;24.93;45.65
15267;BME280;7735;49.144;8.668;2022-07-29T01:04:17;99851.00;;;24.90;45.80
15267;BME280;7735;49.144;8.668;2022-07-29T01:06:43;99853.78;;;24.88;45.85
15267;BME280;7735;49.144;8.668;2022-07-29T01:09:10;99847.72;;;24.86;46.05
15267;BME280;7735;49.144;8.668;2022-07-29T01:11:38;99851.34;;;24.85;46.11
15267;BME280;7735;49.144;8.668;2022-07-29T01:14:06;99852.31;;;24.84;46.24
15267;BME280;7735;49.144;8.668;2022-07-29T01:16:40;99851.47;;;24.83;46.42
15267;BME280;7735;49.144;8.668;2022-07-29T01:19:29;99855.94;;;24.83;46.35
15267;BME280;7735;49.144;8.668;2022-07-29T01:22:12;99852.50;;;24.81;46.40
15267;BME280;7735;49.144;8.668;2022-07-29T01:25:12;99845.59;;;24.78;46.69
15267;BME280;7735;49.144;8.668;2022-07-29T01:27:51;99844.00;;;24.76;46.85
15267;BME280;7735;49.144;8.668;2022-07-29T01:30:29;99839.72;;;24.73;46.61
15267;BME280;7735;49.144;8.668;2022-07-29T01:33:01;99847.84;;;24.72;46.95
15267;BME280;7735;49.144;8.668;2022-07-29T01:35:33;99848.81;;;24.71;46.84
15267;BME280;7735;49.144;8.668;2022-07-29T01:38:07;99846.13;;;24.71;47.25
15267;BME280;7735;49.144;8.668;2022-07-29T01:40:40;99842.63;;;24.70;47.39
15267;BME280;7735;49.144;8.668;2022-07-29T01:43:12;99832.81;;;24.71;47.52
15267;BME280;7735;49.144;8.668;2022-07-29T01:45:43;99843.47;;;24.71;47.49
15267;BME280;7735;49.144;8.668;2022-07-29T01:48:15;99831.97;;;24.70;47.65
15267;BME280;7735;49.144;8.668;2022-07-29T01:50:47;99835.72;;;24.68;47.41
15267;BME280;7735;49.144;8.668;2022-07-29T01:53:17;99830.59;;;24.65;47.78
15267;BME280;7735;49.144;8.668;2022-07-29T01:55:48;99834.03;;;24.67;47.52
15267;BME280;7735;49.144;8.668;2022-07-29T01:58:17;99833.25;;;24.65;47.80
15267;BME280;7735;49.144;8.668;2022-07-29T02:00:48;99834.13;;;24.65;47.83
15267;BME280;7735;49.144;8.668;2022-07-29T02:03:17;99828.88;;;24.64;47.59
15267;BME280;7735;49.144;8.668;2022-07-29T02:05:46;99827.19;;;24.63;47.89
15267;BME280;7735;49.144;8.668;2022-07-29T02:08:15;99828.28;;;24.60;47.98
15267;BME280;7735;49.144;8.668;2022-07-29T02:10:44;99833.72;;;24.58;48.38
15267;BME280;7735;49.144;8.668;2022-07-29T02:13:12;99820.59;;;24.55;48.10
15267;BME280;7735;49.144;8.668;2022-07-29T02:15:42;99823.38;;;24.54;48.45
15267;BME280;7735;49.144;8.668;2022-07-29T02:18:14;99838.50;;;24.53;48.30
15267;BME280;7735;49.144;8.668;2022-07-29T02:20:44;99829.53;;;24.54;48.57
15267;BME280;7735;49.144;8.668;2022-07-29T02:23:14;99832.31;;;24.53;48.73
15267;BME280;7735;49.144;8.668;2022-07-29T02:25:43;99823.59;;;24.51;48.66
15267;BME280;7735;49.144;8.668;2022-07-29T02:28:11;99823.81;;;24.48;49.15
15267;BME280;7735;49.144;8.668;2022-07-29T02:30:41;99821.25;;;24.46;48.98
15267;BME280;7735;49.144;8.668;2022-07-29T02:33:13;99824.03;;;24.45;49.04
15267;BME280;7735;49.144;8.668;2022-07-29T02:35:41;99833.81;;;24.44;48.85
15267;BME280;7735;49.144;8.668;2022-07-29T02:38:13;99825.94;;;24.43;49.37
15267;BME280;7735;49.144;8.668;2022-07-29T02:40:58;99829.78;;;24.39;49.04
15267;BME280;7735;49.144;8.668;2022-07-29T02:43:26;99834.47;;;24.35;49.46
15267;BME280;7735;49.144;8.668;2022-07-29T02:45:54;99824.91;;;24.33;49.64
15267;BME280;7735;49.144;8.668;2022-07-29T02:48:31;99824.91;;;24.33;49.57
15267;BME280;7735;49.144;8.668;2022-07-29T02:51:05;99834.84;;;24.29;49.52
15267;BME280;7735;49.144;8.668;2022-07-29T02:53:33;99836.59;;;24.30;49.43
15267;BME280;7735;49.144;8.668;2022-07-29T02:56:04;99837.50;;;24.29;49.67
15267;BME280;7735;49.144;8.668;2022-07-29T02:58:34;99839.44;;;24.27;49.62
15267;BME280;7735;49.144;8.668;2022-07-29T03:01:08;99828.06;;;24.25;49.86
15267;BME280;7735;49.144;8.668;2022-07-29T03:03:39;99835.41;;;24.21;49.97
15267;BME280;7735;49.144;8.668;2022-07-29T03:06:08;99841.66;;;24.20;50.27
15267;BME280;7735;49.144;8.668;2022-07-29T03:08:35;99834.56;;;24.21;50.39
15267;BME280;7735;49.144;8.668;2022-07-29T03:11:03;99837.22;;;24.21;50.51
15267;BME280;7735;49.144;8.668;2022-07-29T03:13:30;99834.63;;;24.19;50.47
15267;BME280;7735;49.144;8.668;2022-07-29T03:15:57;99830.16;;;24.20;50.61
15267;BME280;7735;49.144;8.668;2022-07-29T03:18:25;99832.19;;;24.16;50.53
15267;BME280;7735;49.144;8.668;2022-07-29T03:20:53;99833.28;;;24.14;50.80
15267;BME280;7735;49.144;8.668;2022-07-29T03:23:21;99833.47;;;24.11;50.88
15267;BME280;7735;49.144;8.668;2022-07-29T03:25:49;99836.22;;;24.09;50.58
15267;BME280;7735;49.144;8.668;2022-07-29T03:28:16;99844.53;;;24.05;51.07
15267;BME280;7735;49.144;8.668;2022-07-29T03:30:42;99832.41;;;24.00;50.97
15267;BME280;7735;49.144;8.668;2022-07-29T03:33:09;99834.31;;;23.98;51.10
15267;BME280;7735;49.144;8.668;2022-07-29T03:35:39;99832.72;;;23.96;51.10
15267;BME280;7735;49.144;8.668;2022-07-29T03:38:07;99831.22;;;23.92;51.49
15267;BME280;7735;49.144;8.668;2022-07-29T03:40:38;99830.59;;;23.88;51.63
15267;BME280;7735;49.144;8.668;2022-07-29T03:43:14;99834.38;;;23.84;51.81
15267;BME280;7735;49.144;8.668;2022-07-29T03:45:44;99842.38;;;23.84;51.49
15267;BME280;7735;49.144;8.668;2022-07-29T03:48:15;99842.47;;;23.83;51.74
15267;BME280;7735;49.144;8.668;2022-07-29T03:50:42;99839.19;;;23.79;51.59
15267;BME280;7735;49.144;8.668;2022-07-29T03:53:11;99834.72;;;23.80;51.80
15267;BME280;7735;49.144;8.668;2022-07-29T03:55:58;99841.84;;;23.79;51.76
15267;BME280;7735;49.144;8.668;2022-07-29T03:58:27;99840.16;;;23.78;51.75
15267;BME280;7735;49.144;8.668;2022-07-29T04:00:54;99840.16;;;23.78;51.96
15267;BME280;7735;49.144;8.668;2022-07-29T04:03:21;99840.25;;;23.77;51.96
15267;BME280;7735;49.144;8.668;2022-07-29T04:05:58;99849.09;;;23.77;52.05
15267;BME280;7735;49.144;8.668;2022-07-29T04:08:26;99844.69;;;23.76;51.83
15267;BME280;7735;49.144;8.668;2022-07-29T04:10:53;99848.13;;;23.78;51.81
15267;BME280;7735;49.144;8.668;2022-07-29T04:13:20;99848.22;;;23.77;51.72
15267;BME280;7735;49.144;8.668;2022-07-29T04:15:46;99848.41;;;23.73;51.99
15267;BME280;7735;49.144;8.668;2022-07-29T04:18:13;99850.22;;;23.73;52.07
15267;BME280;7735;49.144;8.668;2022-07-29T04:20:39;99850.22;;;23.73;51.97
15267;BME280;7735;49.144;8.668;2022-07-29T04:23:06;99853.84;;;23.72;52.25
15267;BME280;7735;49.144;8.668;2022-07-29T04:25:37;99853.09;;;23.70;52.26
15267;BME280;7735;49.144;8.668;2022-07-29T04:28:03;99861.19;;;23.68;52.38
15267;BME280;7735;49.144;8.668;2022-07-29T04:30:31;99861.19;;;23.68;52.21
15267;BME280;7735;49.144;8.668;2022-07-29T04:32:58;99862.88;;;23.69;52.29
15267;BME280;7735;49.144;8.668;2022-07-29T04:35:26;99858.41;;;23.70;52.38
15267;BME280;7735;49.144;8.668;2022-07-29T04:37:52;99858.31;;;23.71;52.52
15267;BME280;7735;49.144;8.668;2022-07-29T04:40:19;99857.34;;;23.72;52.24
15267;BME280;7735;49.144;8.668;2022-07-29T04:42:47;99867.88;;;23.74;52.53
15267;BME280;7735;49.144;8.668;2022-07-29T04:45:14;99861.81;;;23.72;52.36
15267;BME280;7735;49.144;8.668;2022-07-29T04:47:40;99861.81;;;23.72;52.58
15267;BME280;7735;49.144;8.668;2022-07-29T04:50:08;99863.50;;;23.73;52.42
15267;BME280;7735;49.144;8.668;2022-07-29T04:52:34;99866.91;;;23.75;52.53
15267;BME280;7735;49.144;8.668;2022-07-29T04:55:02;99868.63;;;23.76;52.37
15267;BME280;7735;49.144;8.668;2022-07-29T04:57:29;99868.63;;;23.76;52.49
15267;BME280;7735;49.144;8.668;2022-07-29T04:59:57;99866.72;;;23.78;52.47
15267;BME280;7735;49.144;8.668;2022-07-29T05:02:24;99871.09;;;23.79;52.77
15267;BME280;7735;49.144;8.668;2022-07-29T05:04:50;99870.97;;;23.81;52.52
15267;BME280;7735;49.144;8.668;2022-07-29T05:07:17;99872.69;;;23.82;52.69
15267;BME280;7735;49.144;8.668;2022-07-29T05:09:43;99873.53;;;23.82;52.50
15267;BME280;7735;49.144;8.668;2022-07-29T05:12:10;99880.56;;;23.83;52.66
15267;BME280;7735;49.144;8.668;2022-07-29T05:14:37;99878.63;;;23.85;52.59
15267;BME280;7735;49.144;8.668;2022-07-29T05:17:05;99882.06;;;23.87;52.89
15267;BME280;7735;49.144;8.668;2022-07-29T05:19:31;99880.56;;;23.83;52.92
15267;BME280;7735;49.144;8.668;2022-07-29T05:21:58;99878.22;;;23.79;53.21
15267;BME280;7735;49.144;8.668;2022-07-29T05:24:25;99880.03;;;23.78;52.94
15267;BME280;7735;49.144;8.668;2022-07-29T05:26:55;99879.91;;;23.80;53.20
15267;BME280;7735;49.144;8.668;2022-07-29T05:29:21;99877.16;;;23.81;53.03
15267;BME280;7735;49.144;8.668;2022-07-29T05:31:48;99882.38;;;23.83;52.86
15267;BME280;7735;49.144;8.668;2022-07-29T05:34:18;99881.22;;;23.87;53.19
15267;BME280;7735;49.144;8.668;2022-07-29T05:36:44;99886.03;;;23.94;52.84
15267;BME280;7735;49.144;8.668;2022-07-29T05:39:11;99881.44;;;23.96;52.91
15267;BME280;7735;49.144;8.668;2022-07-29T05:41:38;99880.38;;;23.99;53.20
15267;BME280;7735;49.144;8.668;2022-07-29T05:44:05;99888.06;;;24.04;52.94
15267;BME280;7735;49.144;8.668;2022-07-29T05:46:31;99894.88;;;24.08;53.18
15267;BME280;7735;49.144;8.668;2022-07-29T05:48:58;99893.81;;;24.10;52.83
15267;BME280;7735;49.144;8.668;2022-07-29T05:51:26;99898.09;;;24.13;52.92
15267;BME280;7735;49.144;8.668;2022-07-29T05:53:53;99894.25;;;24.17;53.02
15267;BME280;7735;49.144;8.668;2022-07-29T05:56:19;99902.84;;;24.20;52.86
15267;BME280;7735;49.144;8.668;2022-07-29T05:58:46;99895.53;;;24.24;52.87
15267;BME280;7735;49.144;8.668;2022-07-29T06:01:12;99905.09;;;24.26;53.08
15267;BME280;7735;49.144;8.668;2022-07-29T06:03:39;99904.03;;;24.29;52.73
15267;BME280;7735;49.144;8.668;2022-07-29T06:06:06;99898.72;;;24.29;52.97
15267;BME280;7735;49.144;8.668;2022-07-29T06:08:35;99896.81;;;24.31;52.83
15267;BME280;7735;49.144;8.668;2022-07-29T06:11:03;99903.66;;;24.35;52.94
15267;BME280;7735;49.144;8.668;2022-07-29T06:13:31;99905.16;;;24.39;52.62
15267;BME280;7735;49.144;8.668;2022-07-29T06:15:58;99913.91;;;24.41;52.94
15267;BME280;7735;49.144;8.668;2022-07-29T06:18:25;99911.75;;;24.46;52.68
15267;BME280;7735;49.144;8.668;2022-07-29T06:20:52;99911.34;;;24.52;52.76
15267;BME280;7735;49.144;8.668;2022-07-29T06:23:20;99905.59;;;24.58;52.45
15267;BME280;7735;49.144;8.668;2022-07-29T06:25:48;99918.56;;;24.63;52.44
15267;BME280;7735;49.144;8.668;2022-07-29T06:28:14;99919.00;;;24.70;51.92
15267;BME280;7735;49.144;8.668;2022-07-29T06:30:41;99919.00;;;24.70;51.93
15267;BME280;7735;49.144;8.668;2022-07-29T06:33:08;99915.38;;;24.71;51.30
15267;BME280;7735;49.144;8.668;2022-07-29T06:35:34;99918.88;;;24.71;50.88
15267;BME280;7735;49.144;8.668;2022-07-29T06:38:02;99916.09;;;24.73;50.89
15267;BME280;7735;49.144;8.668;2022-07-29T06:40:28;99929.22;;;24.76;50.62
15267;BME280;7735;49.144;8.668;2022-07-29T06:43:14;99920.06;;;24.80;50.27
15267;BME280;7735;49.144;8.668;2022-07-29T06:45:40;99922.53;;;24.83;49.93
15267;BME280;7735;49.144;8.668;2022-07-29T06:48:08;99918.66;;;24.87;49.96
15267;BME280;7735;49.144;8.668;2022-07-29T06:50:35;99922.81;;;24.91;49.27
15267;BME280;7735;49.144;8.668;2022-07-29T06:53:01;99925.78;;;24.99;48.82
15267;BME280;7735;49.144;8.668;2022-07-29T06:55:28;99930.72;;;25.05;49.04
15267;BME280;7735;49.144;8.668;2022-07-29T06:57:54;99926.88;;;25.09;48.48
15267;BME280;7735;49.144;8.668;2022-07-29T07:00:22;99936.47;;;25.12;47.37
15267;BME280;7735;49.144;8.668;2022-07-29T07:02:49;99934.66;;;25.12;47.14
15267;BME280;7735;49.144;8.668;2022-07-29T07:05:15;99932.81;;;25.13;46.61
15267;BME280;7735;49.144;8.668;2022-07-29T07:07:42;99933.44;;;25.17;46.81
15267;BME280;7735;49.144;8.668;2022-07-29T07:10:09;99931.75;;;25.16;46.55
15267;BME280;7735;49.144;8.668;2022-07-29T07:12:35;99935.16;;;25.18;46.48
15267;BME280;7735;49.144;8.668;2022-07-29T07:15:02;99934.00;;;25.22;46.34
15267;BME280;7735;49.144;8.668;2022-07-29T07:17:31;99930.13;;;25.26;46.17
15267;BME280;7735;49.144;8.668;2022-07-29T07:19:57;99932.59;;;25.29;46.37
15267;BME280;7735;49.144;8.668;2022-07-29T07:22:24;99943.75;;;25.34;46.20
15267;BME280;7735;49.144;8.668;2022-07-29T07:24:53;99946.94;;;25.39;46.20
15267;BME280;7735;49.144;8.668;2022-07-29T07:27:20;99942.59;;;25.38;46.40
15267;BME280;7735;49.144;8.668;2022-07-29T07:29:46;99938.09;;;25.38;46.10
15267;BME280;7735;49.144;8.668;2022-07-29T07:32:13;99939.69;;;25.41;45.87
15267;BME280;7735;49.144;8.668;2022-07-29T07:34:42;99943.19;;;25.41;46.26
15267;BME280;7735;49.144;8.668;2022-07-29T07:37:09;99939.69;;;25.41;46.36
15267;BME280;7735;49.144;8.668;2022-07-29T07:39:35;99953.75;;;25.43;46.24
15267;BME280;7735;49.144;8.668;2022-07-29T07:42:02;99950.22;;;25.42;46.27
15267;BME280;7735;49.144;8.668;2022-07-29T07:44:30;99945.75;;;25.43;46.46
15267;BME280;7735;49.144;8.668;2022-07-29T07:46:56;99946.59;;;25.43;46.51
15267;BME280;7735;49.144;8.668;2022-07-29T07:49:23;99948.09;;;25.48;46.23
15267;BME280;7735;49.144;8.668;2022-07-29T07:51:51;99955.75;;;25.52;46.10
15267;BME280;7735;49.144;8.668;2022-07-29T07:54:18;99958.94;;;25.57;45.92
15267;BME280;7735;49.144;8.668;2022-07-29T07:56:45;99953.50;;;25.59;45.90
15267;BME280;7735;49.144;8.668;2022-07-29T07:59:14;99960.41;;;25.61;46.24
15267;BME280;7735;49.144;8.668;2022-07-29T08:01:40;99955.91;;;25.62;45.78
15267;BME280;7735;49.144;8.668;2022-07-29T08:04:07;99955.06;;;25.61;46.21
15267;BME280;7735;49.144;8.668;2022-07-29T08:06:34;99949.00;;;25.59;45.95
15267;BME280;7735;49.144;8.668;2022-07-29T08:09:02;99948.03;;;25.60;45.76
15267;BME280;7735;49.144;8.668;2022-07-29T08:11:29;99946.22;;;25.61;45.81
15267;BME280;7735;49.144;8.668;2022-07-29T08:13:55;99959.34;;;25.64;45.86
15267;BME280;7735;49.144;8.668;2022-07-29T08:16:22;99949.28;;;25.67;46.06
15267;BME280;7735;49.144;8.668;2022-07-29T08:18:51;99948.88;;;25.74;45.86
15267;BME280;7735;49.144;8.668;2022-07-29T08:21:25;99949.38;;;25.79;45.69
15267;BME280;7735;49.144;8.668;2022-07-29T08:23:57;99957.91;;;25.84;45.67
15267;BME280;7735;49.144;8.668;2022-07-29T08:26:52;99957.53;;;25.88;45.66
15267;BME280;7735;49.144;8.668;2022-07-29T08:29:20;99966.06;;;25.93;45.56
15267;BME280;7735;49.144;8.668;2022-07-29T08:31:47;99968.41;;;25.98;45.39
15267;BME280;7735;49.144;8.668;2022-07-29T08:34:14;99966.47;;;26.00;45.43
15267;BME280;7735;49.144;8.668;2022-07-29T08:36:40;99964.41;;;26.04;45.44
15267;BME280;7735;49.144;8.668;2022-07-29T08:39:07;99965.25;;;26.04;45.42
15267;BME280;7735;49.144;8.668;2022-07-29T08:41:34;99959.81;;;26.06;45.24
15267;BME280;7735;49.144;8.668;2022-07-29T08:44:04;99962.38;;;26.07;45.24
15267;BME280;7735;49.144;8.668;2022-07-29T08:46:31;99971.13;;;26.09;45.03
15267;BME280;7735;49.144;8.668;2022-07-29T08:48:58;99964.69;;;26.12;45.44
15267;BME280;7735;49.144;8.668;2022-07-29T08:51:25;99970.75;;;26.14;45.00
15267;BME280;7735;49.144;8.668;2022-07-29T08:53:53;99977.91;;;26.13;44.55
15267;BME280;7735;49.144;8.668;2022-07-29T08:56:21;99970.66;;;26.15;44.53
15267;BME280;7735;49.144;8.668;2022-07-29T08:58:48;99974.06;;;26.17;44.34
15267;BME280;7735;49.144;8.668;2022-07-29T09:01:18;99970.19;;;26.21;44.54
15267;BME280;7735;49.144;8.668;2022-07-29T09:03:47;99963.78;;;26.24;44.30
15267;BME280;7735;49.144;8.668;2022-07-29T09:06:15;99965.25;;;26.28;44.00
15267;BME280;7735;49.144;8.668;2022-07-29T09:08:43;99971.19;;;26.32;43.76
15267;BME280;7735;49.144;8.668;2022-07-29T09:11:11;99966.38;;;26.37;43.46
15267;BME280;7735;49.144;8.668;2022-07-29T09:13:38;99955.28;;;26.54;42.62
15267;BME280;7735;49.144;8.668;2022-07-29T09:16:05;99964.03;;;26.67;41.66
15267;BME280;7735;49.144;8.668;2022-07-29T09:18:46;99959.06;;;26.74;41.39
15267;BME280;7735;49.144;8.668;2022-07-29T09:21:14;99963.31;;;26.76;41.40
15267;BME280;7735;49.144;8.668;2022-07-29T09:24:05;99962.34;;;26.77;41.29
15267;BME280;7735;49.144;8.668;2022-07-29T09:26:34;99962.34;;;26.77;41.09
15267;BME280;7735;49.144;8.668;2022-07-29T09:29:08;99965.75;;;26.79;40.23
15267;BME280;7735;49.144;8.668;2022-07-29T09:31:37;99968.56;;;26.78;40.08
15267;BME280;7735;49.144;8.668;2022-07-29T09:34:06;99963.09;;;26.79;39.98
15267;BME280;7735;49.144;8.668;2022-07-29T09:36:39;99963.81;;;26.81;39.88
15267;BME280;7735;49.144;8.668;2022-07-29T09:39:06;99961.84;;;26.83;39.55
15267;BME280;7735;49.144;8.668;2022-07-29T09:41:44;99951.91;;;26.86;39.60
15267;BME280;7735;49.144;8.668;2022-07-29T09:44:11;99958.00;;;26.88;39.50
15267;BME280;7735;49.144;8.668;2022-07-29T09:46:37;99958.84;;;26.88;39.45
15267;BME280;7735;49.144;8.668;2022-07-29T09:49:10;99954.34;;;26.89;39.19
15267;BME280;7735;49.144;8.668;2022-07-29T09:51:38;99952.41;;;26.91;39.45
15267;BME280;7735;49.144;8.668;2022-07-29T09:54:23;99948.53;;;26.95;39.57
15267;BME280;7735;49.144;8.668;2022-07-29T09:56:51;99952.16;;;26.94;39.50
15267;BME280;7735;49.144;8.668;2022-07-29T09:59:18;99953.63;;;26.98;39.36
15267;BME280;7735;49.144;8.668;2022-07-29T10:01:45;99949.72;;;27.02;39.64
15267;BME280;7735;49.144;8.668;2022-07-29T10:04:14;99950.13;;;27.08;39.36
15267;BME280;7735;49.144;8.668;2022-07-29T10:06:55;99950.72;;;27.12;39.35
15267;BME280;7735;49.144;8.668;2022-07-29T10:09:23;99959.47;;;27.14;39.32
15267;BME280;7735;49.144;8.668;2022-07-29T10:12:03;99951.22;;;27.17;39.31
15267;BME280;7735;49.144;8.668;2022-07-29T10:14:30;99955.56;;;27.18;39.23
15267;BME280;7735;49.144;8.668;2022-07-29T10:16:59;99942.09;;;27.20;39.14
15267;BME280;7735;49.144;8.668;2022-07-29T10:19:28;99949.75;;;27.24;38.99
15267;BME280;7735;49.144;8.668;2022-07-29T10:21:56;99952.03;;;27.29;38.91
15267;BME280;7735;49.144;8.668;2022-07-29T10:24:24;99954.09;;;27.36;38.45
15267;BME280;7735;49.144;8.668;2022-07-29T10:26:51;99945.47;;;27.44;37.95
15267;BME280;7735;49.144;8.668;2022-07-29T10:29:19;99954.81;;;27.50;37.39
15267;BME280;7735;49.144;8.668;2022-07-29T10:31:50;99937.94;;;27.49;37.07
15267;BME280;7735;49.144;8.668;2022-07-29T10:34:31;99942.03;;;27.53;36.89
15267;BME280;7735;49.144;8.668;2022-07-29T10:37:06;99934.63;;;27.57;36.54
15267;BME280;7735;49.144;8.668;2022-07-29T10:39:44;99936.66;;;27.64;35.84
15267;BME280;7735;49.144;8.668;2022-07-29T10:42:18;99934.50;;;27.70;35.92
15267;BME280;7735;49.144;8.668;2022-07-29T10:44:47;99930.84;;;27.71;35.82
15267;BME280;7735;49.144;8.668;2022-07-29T10:47:20;99934.22;;;27.73;35.99
15267;BME280;7735;49.144;8.668;2022-07-29T10:49:58;99926.69;;;27.78;36.25
15267;BME280;7735;49.144;8.668;2022-07-29T10:52:51;99930.78;;;27.82;36.29
15267;BME280;7735;49.144;8.668;2022-07-29T10:55:31;99923.75;;;27.81;36.45
15267;BME280;7735;49.144;8.668;2022-07-29T10:58:14;99924.44;;;27.83;36.35
15267;BME280;7735;49.144;8.668;2022-07-29T11:00:41;99922.53;;;27.85;36.16
15267;BME280;7735;49.144;8.668;2022-07-29T11:03:08;99918.69;;;27.99;36.17
15267;BME280;7735;49.144;8.668;2022-07-29T11:05:53;99920.00;;;28.25;35.55
15267;BME280;7735;49.144;8.668;2022-07-29T11:08:23;99916.13;;;28.29;35.58
15267;BME280;7735;49.144;8.668;2022-07-29T11:14:06;99925.06;;;28.39;34.58
15267;BME280;7735;49.144;8.668;2022-07-29T11:16:58;99913.84;;;28.45;33.91
15267;BME280;7735;49.144;8.668;2022-07-29T11:19:27;99913.16;;;28.53;33.76
15267;BME280;7735;49.144;8.668;2022-07-29T11:21:55;99917.41;;;28.56;33.73
15267;BME280;7735;49.144;8.668;2022-07-29T11:24:23;99913.63;;;28.58;33.98
15267;BME280;7735;49.144;8.668;2022-07-29T11:27:19;99902.75;;;28.60;34.20
15267;BME280;7735;49.144;8.668;2022-07-29T11:29:49;99904.47;;;28.61;34.03
15267;BME280;7735;49.144;8.668;2022-07-29T11:32:17;99907.88;;;28.63;33.66
15267;BME280;7735;49.144;8.668;2022-07-29T11:34:45;99900.53;;;28.65;33.30
15267;BME280;7735;49.144;8.668;2022-07-29T11:37:21;99901.72;;;28.72;33.21
15267;BME280;7735;49.144;8.668;2022-07-29T11:40:10;99904.13;;;28.75;33.45
15267;BME280;7735;49.144;8.668;2022-07-29T11:42:46;99904.25;;;28.73;33.63
15267;BME280;7735;49.144;8.668;2022-07-29T11:47:59;99911.16;;;28.76;33.81
15267;BME280;7735;49.144;8.668;2022-07-29T11:50:32;99912.88;;;28.77;33.67
15267;BME280;7735;49.144;8.668;2022-07-29T11:53:12;99915.44;;;28.88;33.55
15267;BME280;7735;49.144;8.668;2022-07-29T11:55:40;99906.63;;;28.97;33.79
15267;BME280;7735;49.144;8.668;2022-07-29T11:58:09;99904.69;;;28.99;33.42
15267;BME280;7735;49.144;8.668;2022-07-29T12:00:39;99900.41;;;28.97;33.80
15267;BME280;7735;49.144;8.668;2022-07-29T12:03:10;99902.13;;;28.98;33.62
15267;BME280;7735;49.144;8.668;2022-07-29T12:05:39;99901.19;;;29.09;33.58
15267;BME280;7735;49.144;8.668;2022-07-29T12:08:08;99905.28;;;29.22;32.74
15267;BME280;7735;49.144;8.668;2022-07-29T12:10:37;99904.75;;;29.28;32.59
15267;BME280;7735;49.144;8.668;2022-07-29T12:13:04;99905.19;;;29.33;32.70
15267;BME280;7735;49.144;8.668;2022-07-29T12:15:31;99895.03;;;29.37;32.71
15267;BME280;7735;49.144;8.668;2022-07-29T12:17:57;99902.78;;;29.40;32.68
15267;BME280;7735;49.144;8.668;2022-07-29T12:20:25;99904.22;;;29.44;33.04
15267;BME280;7735;49.144;8.668;2022-07-29T12:22:52;99915.94;;;29.43;32.53
15267;BME280;7735;49.144;8.668;2022-07-29T12:25:20;99902.53;;;29.43;32.92
15267;BME280;7735;49.144;8.668;2022-07-29T12:28:02;99898.28;;;29.41;33.19
15267;BME280;7735;49.144;8.668;2022-07-29T12:30:38;99904.31;;;29.33;33.15
15267;BME280;7735;49.144;8.668;2022-07-29T12:33:19;99908.00;;;29.32;33.32
15267;BME280;7735;49.144;8.668;2022-07-29T12:35:48;99902.22;;;29.27;33.08
15267;BME280;7735;49.144;8.668;2022-07-29T12:38:16;99894.56;;;29.22;33.26
15267;BME280;7735;49.144;8.668;2022-07-29T12:40:44;99902.47;;;29.24;32.76
15267;BME280;7735;49.144;8.668;2022-07-29T12:43:14;99901.94;;;29.30;32.79
15267;BME280;7735;49.144;8.668;2022-07-29T12:45:42;99903.47;;;29.32;33.16
15267;BME280;7735;49.144;8.668;2022-07-29T12:48:09;99901.38;;;29.36;32.47
15267;BME280;7735;49.144;8.668;2022-07-29T12:50:50;99897.72;;;29.37;32.31
15267;BME280;7735;49.144;8.668;2022-07-29T12:53:17;99889.38;;;29.40;32.03
15267;BME280;7735;49.144;8.668;2022-07-29T12:55:48;99899.56;;;29.46;31.62
15267;BME280;7735;49.144;8.668;2022-07-29T12:58:36;99907.63;;;29.46;31.91
15267;BME280;7735;49.144;8.668;2022-07-29T13:01:08;99896.19;;;29.44;31.63
15267;BME280;7735;49.144;8.668;2022-07-29T13:03:47;99892.50;;;29.45;31.52
15267;BME280;7735;49.144;8.668;2022-07-29T13:06:31;99892.94;;;29.50;32.06
15267;BME280;7735;49.144;8.668;2022-07-29T13:08:59;99902.72;;;29.51;31.96
15267;BME280;7735;49.144;8.668;2022-07-29T13:11:46;99910.78;;;29.51;31.83
15267;BME280;7735;49.144;8.668;2022-07-29T13:14:30;99907.34;;;29.49;31.63
15267;BME280;7735;49.144;8.668;2022-07-29T13:17:02;99904.78;;;29.48;31.56
15267;BME280;7735;49.144;8.668;2022-07-29T13:19:40;99910.16;;;29.48;32.03
15267;BME280;7735;49.144;8.668;2022-07-29T13:22:07;99914.97;;;29.44;32.35
15267;BME280;7735;49.144;8.668;2022-07-29T13:24:48;99919.72;;;29.41;32.15
15267;BME280;7735;49.144;8.668;2022-07-29T13:27:23;99916.78;;;29.34;32.69
15267;BME280;7735;49.144;8.668;2022-07-29T13:29:52;99912.66;;;29.30;32.57